CDT,Max TemperatureF,Mean TemperatureF,Min TemperatureF,Max Dew PointF,MeanDew PointF,Min DewpointF,Max Humidity, Mean Humidity, Min Humidity, Max Sea Level PressureIn, Mean Sea Level PressureIn, Min Sea Level PressureIn, Max VisibilityMiles, Mean VisibilityMiles, Min VisibilityMiles, Max Wind SpeedMPH, Mean Wind SpeedMPH, Max Gust SpeedMPH,PrecipitationIn, CloudCover, Events, WindDirDegrees
2012-10-1,80,70,60,55,52,46,77,55,30,29.88,29.83,29.78,10,10,10,20,7,30,0.00,0,,335
2012-10-2,77,66,55,54,48,43,82,58,29,29.97,29.92,29.88,10,10,10,10,5,17,0.00,0,,317
2012-10-3,80,65,50,55,51,45,94,66,28,30.01,29.96,29.91,10,10,10,13,3,21,0.00,0,,183
2012-10-4,80,68,57,63,56,50,88,64,51,30.14,30.09,30.01,10,10,10,13,6,16,0.00,2,,163
2012-10-5,62,55,46,50,45,37,77,71,59,30.24,30.15,30.11,10,10,10,20,11,25,0.00,7,,12
2012-10-6,51,46,41,39,36,32,87,68,47,30.31,30.27,30.22,10,10,10,18,9,21,0.00,4,Rain-Thunderstorm,26
2012-10-7,53,43,33,43,35,30,93,70,41,30.34,30.29,30.23,10,10,1,12,3,17,0.06,1,Rain,353
2012-10-8,64,48,32,46,37,32,100,73,34,30.25,30.16,30.04,10,6,0,14,3,17,0.01,3,Fog,189
2012-10-9,66,55,44,55,50,41,88,77,63,30.06,29.97,29.87,10,10,10,21,6,25,0.00,4,,145
2012-10-10,69,58,48,55,43,36,88,54,28,30.27,30.17,30.07,10,10,10,14,8,18,0.00,4,,58
2012-10-11,80,71,62,68,59,46,94,72,55,30.15,30.10,30.02,10,10,5,13,5,21,0.00,6,,161
2012-10-12,75,70,66,70,66,63,94,86,73,30.17,30.12,30.07,10,8,2,22,6,26,0.10,6,Rain-Thunderstorm,161
2012-10-13,80,72,64,70,66,63,100,83,65,30.06,29.90,29.68,10,9,5,22,10,32,0.13,4,Rain-Thunderstorm,168
2012-10-14,78,64,51,64,51,41,94,63,26,30.08,29.94,29.73,10,10,10,13,7,21,0.00,0,,277
2012-10-15,86,66,46,52,47,45,93,57,23,30.08,30.00,29.90,10,10,10,12,5,16,0.00,0,,227
2012-10-16,80,66,51,55,49,46,82,53,30,29.91,29.75,29.60,10,10,10,25,9,30,0.00,0,,185
2012-10-17,82,70,59,63,53,32,88,59,28,29.82,29.58,29.44,10,10,10,21,12,31,0.00,4,,248
2012-10-18,71,58,46,34,26,18,62,30,14,29.94,29.87,29.81,10,10,10,25,9,36,0.00,1,,282
2012-10-19,73,58,44,36,28,23,66,33,17,29.93,29.87,29.84,10,10,7,18,9,29,0.00,1,,285
2012-10-20,84,62,39,61,46,34,87,59,32,29.86,29.79,29.71,10,10,10,16,3,17,0.00,0,,152
2012-10-21,87,76,64,68,66,61,88,71,52,29.83,29.78,29.73,10,10,10,23,10,30,0.00,3,,168
2012-10-22,80,74,68,70,66,61,83,73,54,29.93,29.88,29.82,10,10,10,23,15,32,0.00,2,Rain-Thunderstorm,189
2012-10-23,80,76,71,68,66,64,88,74,65,29.91,29.86,29.82,10,10,10,18,12,26,0.00,4,,185
2012-10-24,82,75,68,64,62,59,83,66,45,29.93,29.86,29.75,10,10,10,20,11,25,0.00,1,,175
2012-10-25,73,60,46,64,50,36,82,69,58,30.20,29.96,29.75,10,10,7,22,15,30,0.00,4,Rain,321
2012-10-26,51,44,37,36,32,30,76,61,44,30.39,30.31,30.20,10,10,10,22,14,29,0.00,2,,8
2012-10-27,55,44,32,32,30,27,93,64,33,30.37,30.29,30.21,10,10,4,9,6,,0.00,0,,10
2012-10-28,59,44,28,34,28,23,93,61,25,30.31,30.26,30.21,10,10,5,8,4,,0.00,0,,40
2012-10-29,68,50,32,37,30,25,93,59,21,30.31,30.22,30.10,10,10,3,9,2,,0.00,0,,179
2012-10-30,77,57,37,41,36,32,87,53,24,30.09,29.97,29.87,10,10,10,13,3,17,0.00,0,,202
2012-10-31,73,58,44,43,38,34,81,55,23,30.06,29.99,29.88,10,7,0,9,4,,0.00,0,,18